sensor_id;sensor_type;location;lat;lon;timestamp;pressure;altitude;pressure_sealevel;temperature;humidity
54806;BME280;62866;55.776;37.496;2023-03-19T00:01:07;101236.50;;;-1.70;49.99
54806;BME280;62866;55.776;37.496;2023-03-19T00:03:33;101233.19;;;-1.74;50.52
54806;BME280;62866;55.776;37.496;2023-03-19T00:06:00;101231.34;;;-1.72;50.51
54806;BME280;62866;55.776;37.496;2023-03-19T00:08:26;101221.22;;;-1.79;49.96
54806;BME280;62866;55.776;37.496;2023-03-19T00:10:52;101230.00;;;-1.80;50.87
54806;BME280;62866;55.776;37.496;2023-03-19T00:13:18;101215.50;;;-1.87;51.13
54806;BME280;62866;55.776;37.496;2023-03-19T00:15:44;101228.31;;;-1.81;51.26
54806;BME280;62866;55.776;37.496;2023-03-19T00:18:11;101223.13;;;-1.83;51.40
54806;BME280;62866;55.776;37.496;2023-03-19T00:20:36;101218.91;;;-1.85;51.14
54806;BME280;62866;55.776;37.496;2023-03-19T00:23:02;101210.19;;;-1.86;51.57
54806;BME280;62866;55.776;37.496;2023-03-19T00:25:28;101210.03;;;-1.83;51.68
54806;BME280;62866;55.776;37.496;2023-03-19T00:27:54;101211.72;;;-1.82;51.78
54806;BME280;62866;55.776;37.496;2023-03-19T00:30:21;101211.91;;;-1.85;52.02
54806;BME280;62866;55.776;37.496;2023-03-19T00:32:47;101205.03;;;-1.87;51.70
54806;BME280;62866;55.776;37.496;2023-03-19T00:35:13;101197.94;;;-1.85;52.03
54806;BME280;62866;55.776;37.496;2023-03-19T00:37:39;101199.78;;;-1.87;51.53
54806;BME280;62866;55.776;37.496;2023-03-19T00:40:05;101204.63;;;-1.97;51.85
54806;BME280;62866;55.776;37.496;2023-03-19T00:42:32;101194.38;;;-2.02;52.20
54806;BME280;62866;55.776;37.496;2023-03-19T00:44:57;101198.84;;;-2.04;52.84
54806;BME280;62866;55.776;37.496;2023-03-19T00:47:23;101200.69;;;-2.06;52.55
54806;BME280;62866;55.776;37.496;2023-03-19T00:49:49;101205.59;;;-2.00;52.43
54806;BME280;62866;55.776;37.496;2023-03-19T00:52:14;101205.06;;;-2.06;52.63
54806;BME280;62866;55.776;37.496;2023-03-19T00:54:41;101198.06;;;-2.06;52.28
54806;BME280;62866;55.776;37.496;2023-03-19T00:57:07;101203.44;;;-2.09;53.04
54806;BME280;62866;55.776;37.496;2023-03-19T00:59:32;101192.56;;;-2.18;53.24
54806;BME280;62866;55.776;37.496;2023-03-19T01:01:58;101199.41;;;-2.16;52.90
54806;BME280;62866;55.776;37.496;2023-03-19T01:04:24;101189.16;;;-2.20;53.43
54806;BME280;62866;55.776;37.496;2023-03-19T01:06:50;101191.78;;;-2.20;53.56
54806;BME280;62866;55.776;37.496;2023-03-19T01:09:19;101198.66;;;-2.18;53.61
54806;BME280;62866;55.776;37.496;2023-03-19T01:11:44;101192.56;;;-2.18;53.96
54806;BME280;62866;55.776;37.496;2023-03-19T01:14:10;101189.16;;;-2.20;53.84
54806;BME280;62866;55.776;37.496;2023-03-19T01:16:36;101183.28;;;-2.25;53.64
54806;BME280;62866;55.776;37.496;2023-03-19T01:19:02;101184.22;;;-2.26;53.88
54806;BME280;62866;55.776;37.496;2023-03-19T01:21:28;101199.09;;;-2.27;54.38
54806;BME280;62866;55.776;37.496;2023-03-19T01:23:57;101189.38;;;-2.25;54.65
54806;BME280;62866;55.776;37.496;2023-03-19T01:26:22;101171.31;;;-2.31;54.14
54806;BME280;62866;55.776;37.496;2023-03-19T01:28:48;101183.63;;;-2.33;54.17
54806;BME280;62866;55.776;37.496;2023-03-19T01:31:14;101176.03;;;-2.38;54.31
54806;BME280;62866;55.776;37.496;2023-03-19T01:33:40;101176.09;;;-2.39;53.85
54806;BME280;62866;55.776;37.496;2023-03-19T01:36:07;101165.91;;;-2.45;53.78
54806;BME280;62866;55.776;37.496;2023-03-19T01:38:33;101169.38;;;-2.45;54.39
54806;BME280;62866;55.776;37.496;2023-03-19T01:40:59;101174.25;;;-2.37;53.87
54806;BME280;62866;55.776;37.496;2023-03-19T01:43:29;101184.72;;;-2.37;54.40
54806;BME280;62866;55.776;37.496;2023-03-19T01:48:45;101170.97;;;-2.42;54.11
54806;BME280;62866;55.776;37.496;2023-03-19T01:51:15;101169.44;;;-2.46;54.11
54806;BME280;62866;55.776;37.496;2023-03-19T01:53:45;101173.53;;;-2.41;54.73
54806;BME280;62866;55.776;37.496;2023-03-19T01:56:15;101170.97;;;-2.42;54.45
54806;BME280;62866;55.776;37.496;2023-03-19T01:58:43;101161.88;;;-2.52;54.55
54806;BME280;62866;55.776;37.496;2023-03-19T02:01:10;101161.72;;;-2.49;54.78
54806;BME280;62866;55.776;37.496;2023-03-19T02:03:37;101171.22;;;-2.47;54.25
54806;BME280;62866;55.776;37.496;2023-03-19T02:06:03;101161.72;;;-2.49;54.37
54806;BME280;62866;55.776;37.496;2023-03-19T02:08:29;101165.13;;;-2.47;53.97
54806;BME280;62866;55.776;37.496;2023-03-19T02:10:55;101157.41;;;-2.50;54.65
54806;BME280;62866;55.776;37.496;2023-03-19T02:13:25;101154.88;;;-2.52;54.76
54806;BME280;62866;55.776;37.496;2023-03-19T02:15:52;101131.25;;;-2.69;54.84
54806;BME280;62866;55.776;37.496;2023-03-19T02:18:17;101131.56;;;-2.58;54.85
54806;BME280;62866;55.776;37.496;2023-03-19T02:23:44;101141.19;;;-2.58;55.11
54806;BME280;62866;55.776;37.496;2023-03-19T02:26:12;101147.28;;;-2.58;54.74
54806;BME280;62866;55.776;37.496;2023-03-19T02:28:41;101143.06;;;-2.60;54.95
54806;BME280;62866;55.776;37.496;2023-03-19T02:31:08;101143.97;;;-2.61;55.16
54806;BME280;62866;55.776;37.496;2023-03-19T02:33:34;101136.97;;;-2.61;55.26
54806;BME280;62866;55.776;37.496;2023-03-19T02:36:01;101138.81;;;-2.63;55.67
54806;BME280;62866;55.776;37.496;2023-03-19T02:38:29;101129.41;;;-2.67;55.14
54806;BME280;62866;55.776;37.496;2023-03-19T02:41:05;101143.19;;;-2.63;55.72
54806;BME280;62866;55.776;37.496;2023-03-19T02:43:33;101141.56;;;-2.66;55.59
54806;BME280;62866;55.776;37.496;2023-03-19T02:46:01;101143.56;;;-2.71;54.99
54806;BME280;62866;55.776;37.496;2023-03-19T02:48:27;101131.63;;;-2.77;55.94
54806;BME280;62866;55.776;37.496;2023-03-19T02:50:53;101127.19;;;-2.76;55.77
54806;BME280;62866;55.776;37.496;2023-03-19T02:53:18;101139.97;;;-2.69;55.66
54806;BME280;62866;55.776;37.496;2023-03-19T02:55:44;101133.09;;;-2.71;55.37
54806;BME280;62866;55.776;37.496;2023-03-19T02:58:10;101134.06;;;-2.74;55.98
54806;BME280;62866;55.776;37.496;2023-03-19T03:00:35;101131.44;;;-2.74;55.86
54806;BME280;62866;55.776;37.496;2023-03-19T03:03:02;101117.88;;;-2.82;55.56
54806;BME280;62866;55.776;37.496;2023-03-19T03:05:29;101129.91;;;-2.78;55.94
54806;BME280;62866;55.776;37.496;2023-03-19T03:07:54;101121.41;;;-2.83;55.74
54806;BME280;62866;55.776;37.496;2023-03-19T03:10:20;101123.84;;;-2.78;56.18
54806;BME280;62866;55.776;37.496;2023-03-19T03:12:45;101120.28;;;-2.77;55.84
54806;BME280;62866;55.776;37.496;2023-03-19T03:15:11;101113.44;;;-2.80;55.93
54806;BME280;62866;55.776;37.496;2023-03-19T03:17:38;101119.56;;;-2.81;55.74
54806;BME280;62866;55.776;37.496;2023-03-19T03:20:05;101105.88;;;-2.86;55.77
54806;BME280;62866;55.776;37.496;2023-03-19T03:22:31;101105.78;;;-2.84;57.00
54806;BME280;62866;55.776;37.496;2023-03-19T03:24:57;101108.47;;;-2.86;56.46
54806;BME280;62866;55.776;37.496;2023-03-19T03:27:22;101108.47;;;-2.86;56.49
54806;BME280;62866;55.776;37.496;2023-03-19T03:29:48;101096.69;;;-2.94;57.41
54806;BME280;62866;55.776;37.496;2023-03-19T03:32:14;101106.63;;;-2.84;57.87
54806;BME280;62866;55.776;37.496;2023-03-19T03:34:39;101116.34;;;-2.86;57.72
54806;BME280;62866;55.776;37.496;2023-03-19T03:37:05;101106.72;;;-2.85;57.59
54806;BME280;62866;55.776;37.496;2023-03-19T03:39:31;101108.38;;;-2.84;57.86
54806;BME280;62866;55.776;37.496;2023-03-19T03:41:57;101104.16;;;-2.87;57.83
54806;BME280;62866;55.776;37.496;2023-03-19T03:44:22;101105.09;;;-2.88;57.48
54806;BME280;62866;55.776;37.496;2023-03-19T03:46:48;101105.78;;;-2.84;57.17
54806;BME280;62866;55.776;37.496;2023-03-19T03:49:13;101110.09;;;-2.83;57.06
54806;BME280;62866;55.776;37.496;2023-03-19T03:51:39;101112.50;;;-2.79;57.29
54806;BME280;62866;55.776;37.496;2023-03-19T03:54:05;101095.25;;;-2.83;57.60
54806;BME280;62866;55.776;37.496;2023-03-19T03:56:31;101100.22;;;-2.77;57.77
54806;BME280;62866;55.776;37.496;2023-03-19T03:58:57;101096.63;;;-2.76;57.31
54806;BME280;62866;55.776;37.496;2023-03-19T04:01:23;101106.00;;;-2.70;57.25
54806;BME280;62866;55.776;37.496;2023-03-19T04:03:49;101110.31;;;-2.69;57.16
54806;BME280;62866;55.776;37.496;2023-03-19T04:06:16;101080.56;;;-2.85;57.75
54806;BME280;62866;55.776;37.496;2023-03-19T04:08:43;101101.38;;;-2.65;57.41
54806;BME280;62866;55.776;37.496;2023-03-19T04:11:09;101115.81;;;-2.56;57.28
54806;BME280;62866;55.776;37.496;2023-03-19T04:13:35;101101.78;;;-2.55;57.55
54806;BME280;62866;55.776;37.496;2023-03-19T04:16:05;101097.16;;;-2.50;56.92
54806;BME280;62866;55.776;37.496;2023-03-19T04:18:32;101101.34;;;-2.46;56.66
54806;BME280;62866;55.776;37.496;2023-03-19T04:20:57;101088.25;;;-2.46;57.32
54806;BME280;62866;55.776;37.496;2023-03-19T04:23:24;101081.47;;;-2.50;57.70
54806;BME280;62866;55.776;37.496;2023-03-19T04:25:49;101082.09;;;-2.45;57.00
54806;BME280;62866;55.776;37.496;2023-03-19T04:28:16;101090.66;;;-2.42;57.81
54806;BME280;62866;55.776;37.496;2023-03-19T04:30:41;101084.50;;;-2.41;57.44
54806;BME280;62866;55.776;37.496;2023-03-19T04:33:12;101082.50;;;-2.36;57.36
54806;BME280;62866;55.776;37.496;2023-03-19T04:35:37;101077.28;;;-2.36;56.55
54806;BME280;62866;55.776;37.496;2023-03-19T04:38:03;101089.44;;;-2.35;57.09
54806;BME280;62866;55.776;37.496;2023-03-19T04:40:29;101089.22;;;-2.30;57.25
54806;BME280;62866;55.776;37.496;2023-03-19T04:42:54;101097.00;;;-2.28;56.78
54806;BME280;62866;55.776;37.496;2023-03-19T04:45:20;101078.88;;;-2.33;57.41
54806;BME280;62866;55.776;37.496;2023-03-19T04:47:45;101084.81;;;-2.30;57.60
54806;BME280;62866;55.776;37.496;2023-03-19T04:50:11;101087.38;;;-2.28;57.47
54806;BME280;62866;55.776;37.496;2023-03-19T04:55:49;101074.34;;;-2.30;56.85
54806;BME280;62866;55.776;37.496;2023-03-19T04:58:15;101077.69;;;-2.26;56.97
54806;BME280;62866;55.776;37.496;2023-03-19T05:00:41;101064.06;;;-2.34;56.65
54806;BME280;62866;55.776;37.496;2023-03-19T05:03:07;101076.34;;;-2.17;57.38
54806;BME280;62866;55.776;37.496;2023-03-19T05:05:32;101068.34;;;-2.14;57.00
54806;BME280;62866;55.776;37.496;2023-03-19T05:07:58;101071.41;;;-2.06;56.89
54806;BME280;62866;55.776;37.496;2023-03-19T05:10:24;101075.59;;;-2.02;57.29
54806;BME280;62866;55.776;37.496;2023-03-19T05:12:49;101074.50;;;-1.98;56.36
54806;BME280;62866;55.776;37.496;2023-03-19T05:15:15;101082.38;;;-1.98;56.45
54806;BME280;62866;55.776;37.496;2023-03-19T05:17:41;101071.50;;;-2.08;56.52
54806;BME280;62866;55.776;37.496;2023-03-19T05:20:08;101066.88;;;-2.03;56.73
54806;BME280;62866;55.776;37.496;2023-03-19T05:22:34;101078.22;;;-2.02;57.05
54806;BME280;62866;55.776;37.496;2023-03-19T05:24:59;101060.09;;;-2.07;57.04
54806;BME280;62866;55.776;37.496;2023-03-19T05:27:25;101069.78;;;-1.92;56.44
54806;BME280;62866;55.776;37.496;2023-03-19T05:29:50;101065.78;;;-1.81;56.48
54806;BME280;62866;55.776;37.496;2023-03-19T05:32:16;101050.69;;;-1.76;56.32
54806;BME280;62866;55.776;37.496;2023-03-19T05:34:41;101060.66;;;-1.67;56.25
54806;BME280;62866;55.776;37.496;2023-03-19T05:37:07;101058.97;;;-1.51;56.66
54806;BME280;62866;55.776;37.496;2023-03-19T05:39:33;101041.78;;;-0.47;55.21
54806;BME280;62866;55.776;37.496;2023-03-19T05:41:59;101033.34;;;2.88;50.43
54806;BME280;62866;55.776;37.496;2023-03-19T05:44:24;101040.56;;;6.44;44.32
54806;BME280;62866;55.776;37.496;2023-03-19T05:46:50;101030.19;;;8.93;40.78
54806;BME280;62866;55.776;37.496;2023-03-19T05:49:16;101026.25;;;9.95;39.28
54806;BME280;62866;55.776;37.496;2023-03-19T05:51:42;101011.00;;;11.41;38.33
54806;BME280;62866;55.776;37.496;2023-03-19T05:54:07;101019.16;;;12.77;34.67
54806;BME280;62866;55.776;37.496;2023-03-19T05:56:33;101016.44;;;13.63;31.90
54806;BME280;62866;55.776;37.496;2023-03-19T05:58:58;101017.56;;;14.06;32.35
54806;BME280;62866;55.776;37.496;2023-03-19T06:01:24;101013.00;;;13.92;32.52
54806;BME280;62866;55.776;37.496;2023-03-19T06:03:50;101001.59;;;14.28;32.01
54806;BME280;62866;55.776;37.496;2023-03-19T06:06:15;101010.47;;;14.95;31.95
54806;BME280;62866;55.776;37.496;2023-03-19T06:08:41;100996.34;;;15.80;29.91
54806;BME280;62866;55.776;37.496;2023-03-19T06:11:07;101001.41;;;15.89;29.87
54806;BME280;62866;55.776;37.496;2023-03-19T06:13:33;101002.34;;;15.61;28.33
54806;BME280;62866;55.776;37.496;2023-03-19T06:15:59;100991.97;;;13.96;28.06
54806;BME280;62866;55.776;37.496;2023-03-19T06:18:25;100997.19;;;12.02;31.13
54806;BME280;62866;55.776;37.496;2023-03-19T06:20:51;100989.28;;;12.25;29.96
54806;BME280;62866;55.776;37.496;2023-03-19T06:23:17;100986.47;;;13.44;28.54
54806;BME280;62866;55.776;37.496;2023-03-19T06:25:43;100984.25;;;12.85;29.73
54806;BME280;62866;55.776;37.496;2023-03-19T06:28:08;100986.59;;;11.68;31.37
54806;BME280;62866;55.776;37.496;2023-03-19T06:30:34;100999.75;;;10.45;32.69
54806;BME280;62866;55.776;37.496;2023-03-19T06:33:00;100984.09;;;9.00;34.71
54806;BME280;62866;55.776;37.496;2023-03-19T06:35:26;100983.34;;;8.81;35.78
54806;BME280;62866;55.776;37.496;2023-03-19T06:37:52;100990.22;;;10.77;34.23
54806;BME280;62866;55.776;37.496;2023-03-19T06:40:17;100978.34;;;13.97;30.63
54806;BME280;62866;55.776;37.496;2023-03-19T06:42:45;100974.97;;;16.34;28.09
54806;BME280;62866;55.776;37.496;2023-03-19T06:45:12;100965.72;;;16.78;25.36
54806;BME280;62866;55.776;37.496;2023-03-19T06:47:40;100975.25;;;15.47;26.66
54806;BME280;62866;55.776;37.496;2023-03-19T06:50:06;100970.13;;;13.31;29.25
54806;BME280;62866;55.776;37.496;2023-03-19T06:52:32;100975.88;;;11.68;31.26
54806;BME280;62866;55.776;37.496;2023-03-19T06:54:58;100975.22;;;11.99;32.07
54806;BME280;62866;55.776;37.496;2023-03-19T06:57:23;100952.69;;;13.49;29.74
54806;BME280;62866;55.776;37.496;2023-03-19T06:59:49;100959.91;;;15.12;27.76
54806;BME280;62866;55.776;37.496;2023-03-19T07:02:15;100959.09;;;16.18;26.96
54806;BME280;62866;55.776;37.496;2023-03-19T07:04:41;100959.75;;;16.26;27.22
54806;BME280;62866;55.776;37.496;2023-03-19T07:07:06;100954.53;;;17.48;27.38
54806;BME280;62866;55.776;37.496;2023-03-19T07:09:32;100959.94;;;18.60;24.26
54806;BME280;62866;55.776;37.496;2023-03-19T07:11:58;100952.38;;;18.88;23.19
54806;BME280;62866;55.776;37.496;2023-03-19T07:14:23;100947.72;;;17.92;23.67
54806;BME280;62866;55.776;37.496;2023-03-19T07:16:49;100942.06;;;18.39;24.18
54806;BME280;62866;55.776;37.496;2023-03-19T07:19:15;100937.97;;;19.26;23.17
54806;BME280;62866;55.776;37.496;2023-03-19T07:21:40;100941.41;;;19.53;23.50
54806;BME280;62866;55.776;37.496;2023-03-19T07:24:06;100936.88;;;20.46;22.61
54806;BME280;62866;55.776;37.496;2023-03-19T07:26:32;100930.63;;;19.96;23.56
54806;BME280;62866;55.776;37.496;2023-03-19T07:28:57;100942.59;;;20.56;22.01
54806;BME280;62866;55.776;37.496;2023-03-19T07:31:23;100924.88;;;20.72;22.21
54806;BME280;62866;55.776;37.496;2023-03-19T07:33:48;100932.94;;;20.60;21.91
54806;BME280;62866;55.776;37.496;2023-03-19T07:36:14;100925.00;;;19.73;22.78
54806;BME280;62866;55.776;37.496;2023-03-19T07:38:39;100929.91;;;19.57;22.48
54806;BME280;62866;55.776;37.496;2023-03-19T07:41:05;100938.34;;;18.20;22.28
54806;BME280;62866;55.776;37.496;2023-03-19T07:43:31;100929.28;;;16.67;23.09
54806;BME280;62866;55.776;37.496;2023-03-19T07:45:57;100934.59;;;16.47;23.41
54806;BME280;62866;55.776;37.496;2023-03-19T07:48:23;100929.88;;;16.28;23.80
54806;BME280;62866;55.776;37.496;2023-03-19T07:50:49;100933.09;;;16.73;23.51
54806;BME280;62866;55.776;37.496;2023-03-19T07:53:15;100915.97;;;17.13;23.09
54806;BME280;62866;55.776;37.496;2023-03-19T07:55:41;100924.97;;;16.73;23.85
54806;BME280;62866;55.776;37.496;2023-03-19T07:58:06;100923.63;;;16.55;25.07
54806;BME280;62866;55.776;37.496;2023-03-19T08:00:32;100933.59;;;17.90;23.90
54806;BME280;62866;55.776;37.496;2023-03-19T08:02:58;100925.44;;;18.93;23.42
54806;BME280;62866;55.776;37.496;2023-03-19T08:05:23;100924.44;;;19.89;22.94
54806;BME280;62866;55.776;37.496;2023-03-19T08:07:49;100912.97;;;19.87;22.76
54806;BME280;62866;55.776;37.496;2023-03-19T08:10:16;100902.94;;;19.87;22.16
54806;BME280;62866;55.776;37.496;2023-03-19T08:12:41;100907.44;;;20.00;21.85
54806;BME280;62866;55.776;37.496;2023-03-19T08:15:09;100902.59;;;19.77;21.72
54806;BME280;62866;55.776;37.496;2023-03-19T08:17:36;100892.09;;;19.62;21.32
54806;BME280;62866;55.776;37.496;2023-03-19T08:20:08;100892.16;;;19.81;21.28
54806;BME280;62866;55.776;37.496;2023-03-19T08:22:34;100886.72;;;19.81;21.78
54806;BME280;62866;55.776;37.496;2023-03-19T08:25:01;100892.31;;;19.86;21.04
54806;BME280;62866;55.776;37.496;2023-03-19T08:27:27;100879.50;;;19.68;21.37
54806;BME280;62866;55.776;37.496;2023-03-19T08:29:54;100876.91;;;19.23;21.12
54806;BME280;62866;55.776;37.496;2023-03-19T08:32:20;100877.66;;;18.41;21.43
54806;BME280;62866;55.776;37.496;2023-03-19T08:34:46;100871.72;;;17.34;22.45
54806;BME280;62866;55.776;37.496;2023-03-19T08:37:11;100869.81;;;16.54;23.17
54806;BME280;62866;55.776;37.496;2023-03-19T08:39:37;100860.91;;;15.14;24.48
54806;BME280;62866;55.776;37.496;2023-03-19T08:42:02;100860.38;;;14.68;24.95
54806;BME280;62866;55.776;37.496;2023-03-19T08:44:28;100861.25;;;14.10;25.71
54806;BME280;62866;55.776;37.496;2023-03-19T08:46:53;100854.84;;;14.25;25.94
54806;BME280;62866;55.776;37.496;2023-03-19T08:49:19;100849.19;;;14.20;25.98
54806;BME280;62866;55.776;37.496;2023-03-19T08:51:45;100831.56;;;14.18;26.17
54806;BME280;62866;55.776;37.496;2023-03-19T08:54:11;100831.19;;;14.50;26.58
54806;BME280;62866;55.776;37.496;2023-03-19T08:56:38;100840.03;;;15.01;25.10
54806;BME280;62866;55.776;37.496;2023-03-19T08:59:05;100815.56;;;14.60;25.56
54806;BME280;62866;55.776;37.496;2023-03-19T09:01:30;100824.34;;;13.89;25.97
54806;BME280;62866;55.776;37.496;2023-03-19T09:03:56;100823.44;;;12.76;27.22
54806;BME280;62866;55.776;37.496;2023-03-19T09:06:21;100828.31;;;12.41;28.00
54806;BME280;62866;55.776;37.496;2023-03-19T09:08:47;100815.63;;;12.35;28.77
54806;BME280;62866;55.776;37.496;2023-03-19T09:11:13;100817.44;;;12.66;28.69
54806;BME280;62866;55.776;37.496;2023-03-19T09:13:41;100809.16;;;13.29;28.22
54806;BME280;62866;55.776;37.496;2023-03-19T09:16:06;100809.69;;;13.62;27.52
54806;BME280;62866;55.776;37.496;2023-03-19T09:18:32;100802.28;;;13.79;27.28
54806;BME280;62866;55.776;37.496;2023-03-19T09:20:58;100802.06;;;13.65;27.39
54806;BME280;62866;55.776;37.496;2023-03-19T09:23:24;100805.91;;;13.34;27.36
54806;BME280;62866;55.776;37.496;2023-03-19T09:25:49;100805.13;;;12.18;28.87
54806;BME280;62866;55.776;37.496;2023-03-19T09:28:15;100807.25;;;10.45;30.81
54806;BME280;62866;55.776;37.496;2023-03-19T09:30:41;100790.63;;;9.14;32.33
54806;BME280;62866;55.776;37.496;2023-03-19T09:33:09;100803.63;;;8.28;33.82
54806;BME280;62866;55.776;37.496;2023-03-19T09:35:35;100810.97;;;7.43;34.38
54806;BME280;62866;55.776;37.496;2023-03-19T09:38:03;100804.28;;;6.71;35.90
54806;BME280;62866;55.776;37.496;2023-03-19T09:40:46;100813.75;;;6.35;36.38
54806;BME280;62866;55.776;37.496;2023-03-19T09:43:39;100809.78;;;6.20;37.60
54806;BME280;62866;55.776;37.496;2023-03-19T09:46:22;100812.22;;;5.93;38.06
54806;BME280;62866;55.776;37.496;2023-03-19T09:49:26;100811.00;;;5.76;38.23
54806;BME280;62866;55.776;37.496;2023-03-19T09:54:35;100816.06;;;5.58;39.16
54806;BME280;62866;55.776;37.496;2023-03-19T09:57:04;100813.31;;;5.18;40.33
54806;BME280;62866;55.776;37.496;2023-03-19T09:59:29;100795.69;;;4.96;40.30
54806;BME280;62866;55.776;37.496;2023-03-19T10:09:53;100795.91;;;5.05;41.15
54806;BME280;62866;55.776;37.496;2023-03-19T10:17:58;100770.22;;;4.52;42.31
54806;BME280;62866;55.776;37.496;2023-03-19T10:20:42;100779.66;;;4.45;43.16
54806;BME280;62866;55.776;37.496;2023-03-19T10:25:53;100749.47;;;4.37;42.82
54806;BME280;62866;55.776;37.496;2023-03-19T10:28:21;100767.66;;;4.62;42.71
54806;BME280;62866;55.776;37.496;2023-03-19T10:33:47;100771.84;;;4.76;42.47
54806;BME280;62866;55.776;37.496;2023-03-19T10:36:13;100759.94;;;4.70;44.00
54806;BME280;62866;55.776;37.496;2023-03-19T10:38:42;100764.25;;;4.71;42.80
54806;BME280;62866;55.776;37.496;2023-03-19T10:41:21;100760.34;;;4.86;43.26
54806;BME280;62866;55.776;37.496;2023-03-19T10:43:54;100752.56;;;4.94;43.17
54806;BME280;62866;55.776;37.496;2023-03-19T10:46:21;100745.22;;;4.98;42.91
54806;BME280;62866;55.776;37.496;2023-03-19T10:48:47;100744.97;;;5.01;43.44
54806;BME280;62866;55.776;37.496;2023-03-19T10:51:16;100746.19;;;4.97;43.49
54806;BME280;62866;55.776;37.496;2023-03-19T10:53:42;100741.78;;;4.86;43.09
54806;BME280;62866;55.776;37.496;2023-03-19T10:58:57;100740.19;;;4.74;44.28
54806;BME280;62866;55.776;37.496;2023-03-19T11:01:27;100739.59;;;4.71;44.07
54806;BME280;62866;55.776;37.496;2023-03-19T11:03:57;100721.50;;;4.76;44.05
54806;BME280;62866;55.776;37.496;2023-03-19T11:06:36;100741.03;;;4.75;44.36
54806;BME280;62866;55.776;37.496;2023-03-19T11:11:48;100728.66;;;4.64;44.93
54806;BME280;62866;55.776;37.496;2023-03-19T11:14:15;100727.56;;;4.67;44.94
54806;BME280;62866;55.776;37.496;2023-03-19T11:16:50;100725.38;;;4.72;44.74
54806;BME280;62866;55.776;37.496;2023-03-19T11:19:20;100720.91;;;4.72;44.56
54806;BME280;62866;55.776;37.496;2023-03-19T11:24:35;100712.00;;;4.73;44.71
54806;BME280;62866;55.776;37.496;2023-03-19T11:27:01;100709.22;;;4.75;44.63
54806;BME280;62866;55.776;37.496;2023-03-19T11:29:28;100706.81;;;4.72;44.40
54806;BME280;62866;55.776;37.496;2023-03-19T11:32:11;100712.25;;;4.70;44.97
54806;BME280;62866;55.776;37.496;2023-03-19T11:39:57;100695.91;;;5.07;45.02
54806;BME280;62866;55.776;37.496;2023-03-19T11:50:59;100686.59;;;5.43;44.54
54806;BME280;62866;55.776;37.496;2023-03-19T11:56:42;100682.97;;;5.53;45.03
54806;BME280;62866;55.776;37.496;2023-03-19T12:13:23;100658.44;;;5.61;45.12
54806;BME280;62866;55.776;37.496;2023-03-19T12:18:51;100645.69;;;5.45;45.47
54806;BME280;62866;55.776;37.496;2023-03-19T12:26:56;100634.38;;;5.43;45.63
54806;BME280;62866;55.776;37.496;2023-03-19T12:35:07;100616.91;;;5.31;45.71
54806;BME280;62866;55.776;37.496;2023-03-19T12:37:39;100611.63;;;5.41;45.44
54806;BME280;62866;55.776;37.496;2023-03-19T12:40:34;100615.81;;;5.43;45.02
54806;BME280;62866;55.776;37.496;2023-03-19T12:43:06;100593.31;;;5.38;45.91
54806;BME280;62866;55.776;37.496;2023-03-19T12:45:37;100606.31;;;5.41;45.94
54806;BME280;62866;55.776;37.496;2023-03-19T12:48:43;100588.00;;;5.38;45.50
54806;BME280;62866;55.776;37.496;2023-03-19T12:51:12;100595.88;;;5.49;45.64
54806;BME280;62866;55.776;37.496;2023-03-19T12:56:38;100590.78;;;6.15;44.05
54806;BME280;62866;55.776;37.496;2023-03-19T12:59:15;100588.44;;;5.92;43.95
54806;BME280;62866;55.776;37.496;2023-03-19T13:01:48;100586.56;;;5.73;44.45
54806;BME280;62866;55.776;37.496;2023-03-19T13:04:22;100586.66;;;5.53;44.89
54806;BME280;62866;55.776;37.496;2023-03-19T13:07:01;100586.34;;;5.37;45.29
54806;BME280;62866;55.776;37.496;2023-03-19T13:09:32;100589.69;;;5.39;44.63
54806;BME280;62866;55.776;37.496;2023-03-19T13:12:10;100584.69;;;5.45;44.66
54806;BME280;62866;55.776;37.496;2023-03-19T13:20:23;100572.88;;;5.78;44.11
54806;BME280;62866;55.776;37.496;2023-03-19T13:22:59;100571.19;;;5.67;43.99
54806;BME280;62866;55.776;37.496;2023-03-19T13:25:33;100571.19;;;5.58;44.16
54806;BME280;62866;55.776;37.496;2023-03-19T13:28:06;100570.03;;;5.41;45.06
54806;BME280;62866;55.776;37.496;2023-03-19T13:30:34;100561.34;;;5.29;44.86
54806;BME280;62866;55.776;37.496;2023-03-19T13:33:05;100560.25;;;5.32;44.51
54806;BME280;62866;55.776;37.496;2023-03-19T13:40:40;100558.88;;;5.57;44.72
54806;BME280;62866;55.776;37.496;2023-03-19T13:51:01;100542.53;;;5.42;44.08
54806;BME280;62866;55.776;37.496;2023-03-19T13:55:56;100535.53;;;5.31;44.35
54806;BME280;62866;55.776;37.496;2023-03-19T13:58:27;100551.38;;;5.52;43.90
54806;BME280;62866;55.776;37.496;2023-03-19T14:03:59;100534.31;;;5.64;43.81
54806;BME280;62866;55.776;37.496;2023-03-19T14:06:40;100532.94;;;5.60;43.90
54806;BME280;62866;55.776;37.496;2023-03-19T14:12:08;100534.44;;;5.34;44.21
54806;BME280;62866;55.776;37.496;2023-03-19T14:14:39;100526.59;;;5.23;44.09
54806;BME280;62866;55.776;37.496;2023-03-19T14:17:13;100524.19;;;5.10;44.17
54806;BME280;62866;55.776;37.496;2023-03-19T14:19:40;100519.38;;;4.94;44.05
54806;BME280;62866;55.776;37.496;2023-03-19T14:22:18;100514.88;;;4.85;44.28
54806;BME280;62866;55.776;37.496;2023-03-19T14:24:55;100518.63;;;4.73;44.80
54806;BME280;62866;55.776;37.496;2023-03-19T14:27:29;100512.56;;;4.62;45.06
54806;BME280;62866;55.776;37.496;2023-03-19T14:29:59;100512.66;;;4.81;44.76
54806;BME280;62866;55.776;37.496;2023-03-19T14:32:33;100497.50;;;5.02;44.78
54806;BME280;62866;55.776;37.496;2023-03-19T14:35:02;100512.09;;;4.87;45.07
54806;BME280;62866;55.776;37.496;2023-03-19T14:37:49;100500.66;;;4.77;45.67
54806;BME280;62866;55.776;37.496;2023-03-19T14:40:40;100493.47;;;4.58;45.72